sensor_id;sensor_type;location;lat;lon;timestamp;P1;durP1;ratioP1;P2;durP2;ratioP2
18999;SDS011;9633;50.980;13.850;2022-07-29T00:00:42;6.40;;;2.57;;
18999;SDS011;9633;50.980;13.850;2022-07-29T00:02:17;4.83;;;2.40;;
18999;SDS011;9633;50.980;13.850;2022-07-29T00:03:50;3.53;;;2.27;;
18999;SDS011;9633;50.980;13.850;2022-07-29T00:05:22;5.53;;;2.60;;
18999;SDS011;9633;50.980;13.850;2022-07-29T00:06:56;6.37;;;2.17;;
18999;SDS011;9633;50.980;13.850;2022-07-29T00:08:29;3.43;;;2.43;;
18999;SDS011;9633;50.980;13.850;2022-07-29T00:10:03;8.73;;;2.27;;
18999;SDS011;9633;50.980;13.850;2022-07-29T00:11:37;4.67;;;2.40;;
18999;SDS011;9633;50.980;13.850;2022-07-29T00:13:10;4.50;;;2.53;;
18999;SDS011;9633;50.980;13.850;2022-07-29T00:14:44;5.27;;;2.63;;
18999;SDS011;9633;50.980;13.850;2022-07-29T00:16:19;5.77;;;2.50;;
18999;SDS011;9633;50.980;13.850;2022-07-29T00:17:52;5.10;;;2.33;;
18999;SDS011;9633;50.980;13.850;2022-07-29T00:19:26;5.13;;;2.40;;
18999;SDS011;9633;50.980;13.850;2022-07-29T00:21:03;7.93;;;2.30;;
18999;SDS011;9633;50.980;13.850;2022-07-29T00:22:36;7.30;;;2.47;;
18999;SDS011;9633;50.980;13.850;2022-07-29T00:24:10;5.20;;;2.30;;
18999;SDS011;9633;50.980;13.850;2022-07-29T00:25:44;4.87;;;2.47;;
18999;SDS011;9633;50.980;13.850;2022-07-29T00:27:17;4.63;;;2.30;;
18999;SDS011;9633;50.980;13.850;2022-07-29T00:28:51;4.77;;;2.47;;
18999;SDS011;9633;50.980;13.850;2022-07-29T00:30:46;5.23;;;2.47;;
18999;SDS011;9633;50.980;13.850;2022-07-29T00:32:19;3.80;;;2.50;;
18999;SDS011;9633;50.980;13.850;2022-07-29T00:33:54;7.90;;;2.30;;
18999;SDS011;9633;50.980;13.850;2022-07-29T00:35:28;4.50;;;2.00;;
18999;SDS011;9633;50.980;13.850;2022-07-29T00:37:15;5.00;;;2.30;;
18999;SDS011;9633;50.980;13.850;2022-07-29T00:38:48;3.37;;;2.13;;
18999;SDS011;9633;50.980;13.850;2022-07-29T00:40:22;3.83;;;2.27;;
18999;SDS011;9633;50.980;13.850;2022-07-29T00:41:55;5.67;;;2.40;;
18999;SDS011;9633;50.980;13.850;2022-07-29T00:43:29;4.47;;;2.27;;
18999;SDS011;9633;50.980;13.850;2022-07-29T00:45:02;3.27;;;2.20;;
18999;SDS011;9633;50.980;13.850;2022-07-29T00:46:39;5.13;;;2.57;;
18999;SDS011;9633;50.980;13.850;2022-07-29T00:48:13;5.97;;;2.13;;
18999;SDS011;9633;50.980;13.850;2022-07-29T00:49:48;5.37;;;2.47;;
18999;SDS011;9633;50.980;13.850;2022-07-29T00:51:21;3.97;;;2.07;;
18999;SDS011;9633;50.980;13.850;2022-07-29T00:52:54;5.57;;;2.27;;
18999;SDS011;9633;50.980;13.850;2022-07-29T00:54:26;4.33;;;2.20;;
18999;SDS011;9633;50.980;13.850;2022-07-29T00:56:00;4.40;;;2.37;;
18999;SDS011;9633;50.980;13.850;2022-07-29T00:57:34;5.43;;;3.47;;
18999;SDS011;9633;50.980;13.850;2022-07-29T00:59:08;5.83;;;3.57;;
18999;SDS011;9633;50.980;13.850;2022-07-29T01:00:42;5.07;;;3.23;;
18999;SDS011;9633;50.980;13.850;2022-07-29T01:02:17;6.03;;;3.10;;
18999;SDS011;9633;50.980;13.850;2022-07-29T01:03:50;4.80;;;3.10;;
18999;SDS011;9633;50.980;13.850;2022-07-29T01:05:26;5.97;;;3.60;;
18999;SDS011;9633;50.980;13.850;2022-07-29T01:07:22;7.43;;;4.70;;
18999;SDS011;9633;50.980;13.850;2022-07-29T01:08:56;7.80;;;5.87;;
18999;SDS011;9633;50.980;13.850;2022-07-29T01:10:30;8.47;;;6.00;;
18999;SDS011;9633;50.980;13.850;2022-07-29T01:12:05;8.83;;;6.77;;
18999;SDS011;9633;50.980;13.850;2022-07-29T01:13:39;13.17;;;7.93;;
18999;SDS011;9633;50.980;13.850;2022-07-29T01:15:13;11.37;;;8.23;;
18999;SDS011;9633;50.980;13.850;2022-07-29T01:16:49;12.13;;;8.30;;
18999;SDS011;9633;50.980;13.850;2022-07-29T01:18:30;11.23;;;7.70;;
18999;SDS011;9633;50.980;13.850;2022-07-29T01:20:09;14.67;;;9.50;;
18999;SDS011;9633;50.980;13.850;2022-07-29T01:21:50;12.13;;;9.70;;
18999;SDS011;9633;50.980;13.850;2022-07-29T01:23:30;18.10;;;10.87;;
18999;SDS011;9633;50.980;13.850;2022-07-29T01:25:40;21.53;;;12.10;;
18999;SDS011;9633;50.980;13.850;2022-07-29T01:27:32;18.70;;;13.27;;
18999;SDS011;9633;50.980;13.850;2022-07-29T01:29:20;21.17;;;14.33;;
18999;SDS011;9633;50.980;13.850;2022-07-29T01:31:06;23.53;;;15.53;;
18999;SDS011;9633;50.980;13.850;2022-07-29T01:32:56;21.03;;;15.90;;
18999;SDS011;9633;50.980;13.850;2022-07-29T01:34:35;22.63;;;16.10;;
18999;SDS011;9633;50.980;13.850;2022-07-29T01:36:13;23.20;;;15.93;;
18999;SDS011;9633;50.980;13.850;2022-07-29T01:37:50;22.77;;;16.30;;
18999;SDS011;9633;50.980;13.850;2022-07-29T01:39:31;23.07;;;15.40;;
18999;SDS011;9633;50.980;13.850;2022-07-29T01:41:08;22.00;;;16.27;;
18999;SDS011;9633;50.980;13.850;2022-07-29T01:42:45;23.80;;;16.63;;
18999;SDS011;9633;50.980;13.850;2022-07-29T01:44:26;20.33;;;16.60;;
18999;SDS011;9633;50.980;13.850;2022-07-29T01:46:05;21.20;;;17.43;;
18999;SDS011;9633;50.980;13.850;2022-07-29T01:47:44;24.83;;;16.47;;
18999;SDS011;9633;50.980;13.850;2022-07-29T01:49:27;26.97;;;17.70;;
18999;SDS011;9633;50.980;13.850;2022-07-29T01:51:04;22.73;;;17.43;;
18999;SDS011;9633;50.980;13.850;2022-07-29T01:52:43;25.40;;;17.87;;
18999;SDS011;9633;50.980;13.850;2022-07-29T01:54:20;23.13;;;18.83;;
18999;SDS011;9633;50.980;13.850;2022-07-29T01:55:57;25.97;;;18.23;;
18999;SDS011;9633;50.980;13.850;2022-07-29T01:57:34;26.77;;;18.73;;
18999;SDS011;9633;50.980;13.850;2022-07-29T01:59:10;27.67;;;19.73;;
18999;SDS011;9633;50.980;13.850;2022-07-29T02:00:45;26.33;;;19.33;;
18999;SDS011;9633;50.980;13.850;2022-07-29T02:02:20;24.63;;;19.57;;
18999;SDS011;9633;50.980;13.850;2022-07-29T02:03:54;25.40;;;19.73;;
18999;SDS011;9633;50.980;13.850;2022-07-29T02:05:32;27.80;;;19.60;;
18999;SDS011;9633;50.980;13.850;2022-07-29T02:07:08;25.90;;;19.30;;
18999;SDS011;9633;50.980;13.850;2022-07-29T02:08:46;25.27;;;19.93;;
18999;SDS011;9633;50.980;13.850;2022-07-29T02:10:21;31.57;;;22.07;;
18999;SDS011;9633;50.980;13.850;2022-07-29T02:11:59;32.77;;;22.90;;
18999;SDS011;9633;50.980;13.850;2022-07-29T02:13:35;31.40;;;23.00;;
18999;SDS011;9633;50.980;13.850;2022-07-29T02:15:09;28.27;;;22.27;;
18999;SDS011;9633;50.980;13.850;2022-07-29T02:16:47;34.13;;;22.90;;
18999;SDS011;9633;50.980;13.850;2022-07-29T02:18:23;28.73;;;22.53;;
18999;SDS011;9633;50.980;13.850;2022-07-29T02:20:02;30.47;;;22.57;;
18999;SDS011;9633;50.980;13.850;2022-07-29T02:21:37;27.00;;;22.83;;
18999;SDS011;9633;50.980;13.850;2022-07-29T02:23:14;31.50;;;23.87;;
18999;SDS011;9633;50.980;13.850;2022-07-29T02:24:51;30.10;;;23.90;;
18999;SDS011;9633;50.980;13.850;2022-07-29T02:26:26;29.60;;;22.83;;
18999;SDS011;9633;50.980;13.850;2022-07-29T02:28:00;31.93;;;22.47;;
18999;SDS011;9633;50.980;13.850;2022-07-29T02:29:34;28.17;;;20.93;;
18999;SDS011;9633;50.980;13.850;2022-07-29T02:31:12;27.53;;;20.57;;
18999;SDS011;9633;50.980;13.850;2022-07-29T02:32:47;27.00;;;20.30;;
18999;SDS011;9633;50.980;13.850;2022-07-29T02:34:22;28.43;;;21.20;;
18999;SDS011;9633;50.980;13.850;2022-07-29T02:35:57;25.07;;;20.47;;
18999;SDS011;9633;50.980;13.850;2022-07-29T02:37:31;31.43;;;22.13;;
18999;SDS011;9633;50.980;13.850;2022-07-29T02:39:06;28.17;;;21.80;;
18999;SDS011;9633;50.980;13.850;2022-07-29T02:40:42;28.23;;;21.33;;
18999;SDS011;9633;50.980;13.850;2022-07-29T02:42:18;26.60;;;21.03;;
18999;SDS011;9633;50.980;13.850;2022-07-29T02:43:54;26.63;;;20.73;;
18999;SDS011;9633;50.980;13.850;2022-07-29T02:45:28;29.93;;;20.87;;
18999;SDS011;9633;50.980;13.850;2022-07-29T02:47:03;34.70;;;21.20;;
18999;SDS011;9633;50.980;13.850;2022-07-29T02:48:48;33.90;;;23.33;;
18999;SDS011;9633;50.980;13.850;2022-07-29T02:50:27;29.80;;;23.37;;
18999;SDS011;9633;50.980;13.850;2022-07-29T02:52:08;30.70;;;22.13;;
18999;SDS011;9633;50.980;13.850;2022-07-29T02:53:45;36.03;;;24.67;;
18999;SDS011;9633;50.980;13.850;2022-07-29T02:55:25;29.50;;;22.97;;
18999;SDS011;9633;50.980;13.850;2022-07-29T02:57:04;30.20;;;23.07;;
18999;SDS011;9633;50.980;13.850;2022-07-29T02:58:46;32.90;;;24.93;;
18999;SDS011;9633;50.980;13.850;2022-07-29T03:00:24;36.67;;;24.77;;
18999;SDS011;9633;50.980;13.850;2022-07-29T03:02:01;30.37;;;23.33;;
18999;SDS011;9633;50.980;13.850;2022-07-29T03:03:36;30.75;;;23.90;;
18999;SDS011;9633;50.980;13.850;2022-07-29T03:05:15;31.73;;;23.53;;
18999;SDS011;9633;50.980;13.850;2022-07-29T03:06:52;35.00;;;24.83;;
18999;SDS011;9633;50.980;13.850;2022-07-29T03:08:26;34.50;;;23.33;;
18999;SDS011;9633;50.980;13.850;2022-07-29T03:10:00;32.83;;;23.83;;
18999;SDS011;9633;50.980;13.850;2022-07-29T03:11:34;33.10;;;23.77;;
18999;SDS011;9633;50.980;13.850;2022-07-29T03:13:19;33.80;;;24.13;;
18999;SDS011;9633;50.980;13.850;2022-07-29T03:14:53;30.97;;;24.77;;
18999;SDS011;9633;50.980;13.850;2022-07-29T03:16:28;33.00;;;24.37;;
18999;SDS011;9633;50.980;13.850;2022-07-29T03:18:00;29.77;;;23.50;;
18999;SDS011;9633;50.980;13.850;2022-07-29T03:19:34;33.70;;;25.13;;
18999;SDS011;9633;50.980;13.850;2022-07-29T03:21:11;33.10;;;24.23;;
18999;SDS011;9633;50.980;13.850;2022-07-29T03:22:44;31.97;;;24.77;;
18999;SDS011;9633;50.980;13.850;2022-07-29T03:24:25;32.53;;;25.03;;
18999;SDS011;9633;50.980;13.850;2022-07-29T03:26:00;32.37;;;24.87;;
18999;SDS011;9633;50.980;13.850;2022-07-29T03:27:34;35.07;;;25.07;;
18999;SDS011;9633;50.980;13.850;2022-07-29T03:29:08;30.30;;;24.60;;
18999;SDS011;9633;50.980;13.850;2022-07-29T03:30:43;31.77;;;25.40;;
18999;SDS011;9633;50.980;13.850;2022-07-29T03:32:18;33.57;;;24.43;;
18999;SDS011;9633;50.980;13.850;2022-07-29T03:33:54;37.63;;;25.57;;
18999;SDS011;9633;50.980;13.850;2022-07-29T03:35:28;30.90;;;24.20;;
18999;SDS011;9633;50.980;13.850;2022-07-29T03:37:04;37.53;;;25.30;;
18999;SDS011;9633;50.980;13.850;2022-07-29T03:38:38;31.90;;;23.87;;
18999;SDS011;9633;50.980;13.850;2022-07-29T03:40:16;36.30;;;24.90;;
18999;SDS011;9633;50.980;13.850;2022-07-29T03:41:55;35.60;;;25.13;;
18999;SDS011;9633;50.980;13.850;2022-07-29T03:43:32;36.77;;;25.00;;
18999;SDS011;9633;50.980;13.850;2022-07-29T03:45:20;37.63;;;25.80;;
18999;SDS011;9633;50.980;13.850;2022-07-29T03:46:57;32.63;;;26.40;;
18999;SDS011;9633;50.980;13.850;2022-07-29T03:48:31;37.13;;;28.17;;
18999;SDS011;9633;50.980;13.850;2022-07-29T03:50:07;35.93;;;27.60;;
18999;SDS011;9633;50.980;13.850;2022-07-29T03:51:43;37.03;;;28.07;;
18999;SDS011;9633;50.980;13.850;2022-07-29T03:53:18;36.77;;;28.73;;
18999;SDS011;9633;50.980;13.850;2022-07-29T03:54:51;41.27;;;31.60;;
18999;SDS011;9633;50.980;13.850;2022-07-29T03:56:25;42.80;;;31.23;;
18999;SDS011;9633;50.980;13.850;2022-07-29T03:58:01;41.63;;;31.77;;
18999;SDS011;9633;50.980;13.850;2022-07-29T03:59:35;47.60;;;32.93;;
18999;SDS011;9633;50.980;13.850;2022-07-29T04:01:09;46.37;;;32.63;;
18999;SDS011;9633;50.980;13.850;2022-07-29T04:02:44;42.20;;;31.93;;
18999;SDS011;9633;50.980;13.850;2022-07-29T04:04:20;43.83;;;32.87;;
18999;SDS011;9633;50.980;13.850;2022-07-29T04:05:58;45.17;;;33.60;;
18999;SDS011;9633;50.980;13.850;2022-07-29T04:07:32;44.13;;;32.50;;
18999;SDS011;9633;50.980;13.850;2022-07-29T04:09:07;44.43;;;33.57;;
18999;SDS011;9633;50.980;13.850;2022-07-29T04:10:40;43.30;;;33.47;;
18999;SDS011;9633;50.980;13.850;2022-07-29T04:12:13;47.17;;;34.13;;
18999;SDS011;9633;50.980;13.850;2022-07-29T04:13:47;43.63;;;34.80;;
18999;SDS011;9633;50.980;13.850;2022-07-29T04:15:20;46.63;;;34.17;;
18999;SDS011;9633;50.980;13.850;2022-07-29T04:16:54;44.27;;;34.97;;
18999;SDS011;9633;50.980;13.850;2022-07-29T04:18:27;50.23;;;35.93;;
18999;SDS011;9633;50.980;13.850;2022-07-29T04:20:01;48.17;;;35.50;;
18999;SDS011;9633;50.980;13.850;2022-07-29T04:21:37;48.87;;;36.63;;
18999;SDS011;9633;50.980;13.850;2022-07-29T04:23:10;47.67;;;36.63;;
18999;SDS011;9633;50.980;13.850;2022-07-29T04:24:45;52.77;;;38.20;;
18999;SDS011;9633;50.980;13.850;2022-07-29T04:26:19;51.90;;;36.53;;
18999;SDS011;9633;50.980;13.850;2022-07-29T04:27:53;46.83;;;36.77;;
18999;SDS011;9633;50.980;13.850;2022-07-29T04:29:35;51.40;;;37.00;;
18999;SDS011;9633;50.980;13.850;2022-07-29T04:31:27;55.30;;;37.80;;
18999;SDS011;9633;50.980;13.850;2022-07-29T04:33:01;46.87;;;36.47;;
18999;SDS011;9633;50.980;13.850;2022-07-29T04:34:34;51.00;;;37.40;;
18999;SDS011;9633;50.980;13.850;2022-07-29T04:36:07;48.60;;;36.80;;
18999;SDS011;9633;50.980;13.850;2022-07-29T04:38:00;48.17;;;35.63;;
18999;SDS011;9633;50.980;13.850;2022-07-29T04:39:34;45.23;;;35.57;;
18999;SDS011;9633;50.980;13.850;2022-07-29T04:41:09;51.67;;;37.53;;
18999;SDS011;9633;50.980;13.850;2022-07-29T04:42:44;44.83;;;34.63;;
18999;SDS011;9633;50.980;13.850;2022-07-29T04:44:19;49.37;;;37.30;;
18999;SDS011;9633;50.980;13.850;2022-07-29T04:45:59;46.33;;;36.43;;
18999;SDS011;9633;50.980;13.850;2022-07-29T04:47:32;49.67;;;36.57;;
18999;SDS011;9633;50.980;13.850;2022-07-29T04:49:06;43.57;;;34.50;;
18999;SDS011;9633;50.980;13.850;2022-07-29T04:50:39;52.57;;;38.43;;
18999;SDS011;9633;50.980;13.850;2022-07-29T04:52:13;48.63;;;36.67;;
18999;SDS011;9633;50.980;13.850;2022-07-29T04:53:46;49.20;;;37.93;;
18999;SDS011;9633;50.980;13.850;2022-07-29T04:55:20;47.30;;;36.93;;
18999;SDS011;9633;50.980;13.850;2022-07-29T04:56:55;48.20;;;36.73;;
18999;SDS011;9633;50.980;13.850;2022-07-29T04:58:27;50.20;;;37.87;;
18999;SDS011;9633;50.980;13.850;2022-07-29T05:00:01;48.90;;;38.27;;
18999;SDS011;9633;50.980;13.850;2022-07-29T05:01:36;50.67;;;38.50;;
18999;SDS011;9633;50.980;13.850;2022-07-29T05:03:09;51.77;;;39.83;;
18999;SDS011;9633;50.980;13.850;2022-07-29T05:04:43;45.80;;;34.87;;
18999;SDS011;9633;50.980;13.850;2022-07-29T05:06:16;44.70;;;33.13;;
18999;SDS011;9633;50.980;13.850;2022-07-29T05:07:50;45.57;;;34.33;;
18999;SDS011;9633;50.980;13.850;2022-07-29T05:09:23;52.50;;;41.00;;
18999;SDS011;9633;50.980;13.850;2022-07-29T05:10:56;71.37;;;51.40;;
18999;SDS011;9633;50.980;13.850;2022-07-29T05:12:43;72.67;;;52.03;;
18999;SDS011;9633;50.980;13.850;2022-07-29T05:14:17;68.60;;;50.77;;
18999;SDS011;9633;50.980;13.850;2022-07-29T05:15:51;97.50;;;68.87;;
18999;SDS011;9633;50.980;13.850;2022-07-29T05:17:24;98.00;;;65.70;;
18999;SDS011;9633;50.980;13.850;2022-07-29T05:18:58;92.23;;;65.50;;
18999;SDS011;9633;50.980;13.850;2022-07-29T05:20:31;101.40;;;68.97;;
18999;SDS011;9633;50.980;13.850;2022-07-29T05:22:05;97.93;;;67.83;;
18999;SDS011;9633;50.980;13.850;2022-07-29T05:23:39;101.53;;;66.97;;
18999;SDS011;9633;50.980;13.850;2022-07-29T05:25:12;99.47;;;68.47;;
18999;SDS011;9633;50.980;13.850;2022-07-29T05:26:45;104.37;;;75.13;;
18999;SDS011;9633;50.980;13.850;2022-07-29T05:28:20;102.43;;;74.37;;
18999;SDS011;9633;50.980;13.850;2022-07-29T05:29:53;104.87;;;71.03;;
18999;SDS011;9633;50.980;13.850;2022-07-29T05:31:27;98.80;;;71.00;;
18999;SDS011;9633;50.980;13.850;2022-07-29T05:36:13;98.67;;;69.70;;
18999;SDS011;9633;50.980;13.850;2022-07-29T05:37:46;105.43;;;73.67;;
18999;SDS011;9633;50.980;13.850;2022-07-29T05:39:19;109.07;;;74.57;;
18999;SDS011;9633;50.980;13.850;2022-07-29T05:41:13;107.13;;;74.83;;
18999;SDS011;9633;50.980;13.850;2022-07-29T05:42:46;104.20;;;76.37;;
18999;SDS011;9633;50.980;13.850;2022-07-29T05:44:21;102.50;;;77.83;;
18999;SDS011;9633;50.980;13.850;2022-07-29T05:45:55;112.80;;;78.33;;
18999;SDS011;9633;50.980;13.850;2022-07-29T05:47:29;128.43;;;85.63;;
18999;SDS011;9633;50.980;13.850;2022-07-29T05:49:03;120.43;;;87.50;;
18999;SDS011;9633;50.980;13.850;2022-07-29T05:50:39;146.60;;;99.17;;
18999;SDS011;9633;50.980;13.850;2022-07-29T05:52:18;144.23;;;102.60;;
18999;SDS011;9633;50.980;13.850;2022-07-29T05:53:51;132.93;;;97.17;;
18999;SDS011;9633;50.980;13.850;2022-07-29T05:55:25;160.33;;;112.80;;
18999;SDS011;9633;50.980;13.850;2022-07-29T05:56:58;168.37;;;119.50;;
18999;SDS011;9633;50.980;13.850;2022-07-29T05:58:31;168.40;;;119.20;;
18999;SDS011;9633;50.980;13.850;2022-07-29T06:00:08;171.13;;;124.70;;
18999;SDS011;9633;50.980;13.850;2022-07-29T06:01:45;184.80;;;137.87;;
18999;SDS011;9633;50.980;13.850;2022-07-29T06:03:18;192.47;;;136.80;;
18999;SDS011;9633;50.980;13.850;2022-07-29T06:04:51;188.73;;;135.43;;
18999;SDS011;9633;50.980;13.850;2022-07-29T06:06:25;191.77;;;135.60;;
18999;SDS011;9633;50.980;13.850;2022-07-29T06:07:58;184.83;;;132.33;;
18999;SDS011;9633;50.980;13.850;2022-07-29T06:09:32;193.47;;;138.53;;
18999;SDS011;9633;50.980;13.850;2022-07-29T06:11:06;186.93;;;135.33;;
18999;SDS011;9633;50.980;13.850;2022-07-29T06:12:40;186.67;;;132.73;;
18999;SDS011;9633;50.980;13.850;2022-07-29T06:14:13;192.43;;;133.13;;
18999;SDS011;9633;50.980;13.850;2022-07-29T06:15:49;198.00;;;136.77;;
18999;SDS011;9633;50.980;13.850;2022-07-29T06:17:22;196.77;;;139.07;;
18999;SDS011;9633;50.980;13.850;2022-07-29T06:18:56;210.87;;;141.90;;
18999;SDS011;9633;50.980;13.850;2022-07-29T06:20:30;191.53;;;136.03;;
18999;SDS011;9633;50.980;13.850;2022-07-29T06:22:04;210.23;;;142.93;;
18999;SDS011;9633;50.980;13.850;2022-07-29T06:23:37;189.30;;;136.73;;
18999;SDS011;9633;50.980;13.850;2022-07-29T06:25:10;182.30;;;132.17;;
18999;SDS011;9633;50.980;13.850;2022-07-29T06:26:44;193.33;;;132.07;;
18999;SDS011;9633;50.980;13.850;2022-07-29T06:28:17;177.97;;;129.67;;
18999;SDS011;9633;50.980;13.850;2022-07-29T06:29:51;177.93;;;128.37;;
18999;SDS011;9633;50.980;13.850;2022-07-29T06:31:26;183.37;;;129.37;;
18999;SDS011;9633;50.980;13.850;2022-07-29T06:32:59;186.13;;;128.40;;
18999;SDS011;9633;50.980;13.850;2022-07-29T06:34:33;182.73;;;130.63;;
18999;SDS011;9633;50.980;13.850;2022-07-29T06:36:07;193.67;;;138.17;;
18999;SDS011;9633;50.980;13.850;2022-07-29T06:37:42;195.50;;;139.57;;
18999;SDS011;9633;50.980;13.850;2022-07-29T06:39:19;201.10;;;141.57;;
18999;SDS011;9633;50.980;13.850;2022-07-29T06:40:52;191.67;;;138.13;;
18999;SDS011;9633;50.980;13.850;2022-07-29T06:42:34;194.40;;;132.63;;
18999;SDS011;9633;50.980;13.850;2022-07-29T06:44:07;194.50;;;135.37;;
18999;SDS011;9633;50.980;13.850;2022-07-29T06:45:42;201.07;;;138.73;;
18999;SDS011;9633;50.980;13.850;2022-07-29T06:47:16;197.53;;;138.80;;
18999;SDS011;9633;50.980;13.850;2022-07-29T06:48:55;191.20;;;134.43;;
18999;SDS011;9633;50.980;13.850;2022-07-29T06:50:33;175.60;;;122.43;;
18999;SDS011;9633;50.980;13.850;2022-07-29T06:52:33;159.50;;;116.53;;
18999;SDS011;9633;50.980;13.850;2022-07-29T06:54:47;164.57;;;117.90;;
18999;SDS011;9633;50.980;13.850;2022-07-29T06:56:32;162.20;;;120.27;;
18999;SDS011;9633;50.980;13.850;2022-07-29T06:58:11;178.43;;;126.93;;
18999;SDS011;9633;50.980;13.850;2022-07-29T06:59:58;181.07;;;124.37;;
18999;SDS011;9633;50.980;13.850;2022-07-29T07:01:32;173.30;;;125.07;;
18999;SDS011;9633;50.980;13.850;2022-07-29T07:03:08;175.87;;;129.30;;
18999;SDS011;9633;50.980;13.850;2022-07-29T07:04:42;176.93;;;132.40;;
18999;SDS011;9633;50.980;13.850;2022-07-29T07:06:16;187.10;;;132.20;;
18999;SDS011;9633;50.980;13.850;2022-07-29T07:07:52;180.67;;;130.97;;
18999;SDS011;9633;50.980;13.850;2022-07-29T07:09:26;163.87;;;119.43;;
18999;SDS011;9633;50.980;13.850;2022-07-29T07:11:10;153.43;;;115.43;;
18999;SDS011;9633;50.980;13.850;2022-07-29T07:12:44;164.00;;;117.13;;
18999;SDS011;9633;50.980;13.850;2022-07-29T07:14:17;133.90;;;101.80;;
18999;SDS011;9633;50.980;13.850;2022-07-29T07:15:51;124.83;;;91.03;;
18999;SDS011;9633;50.980;13.850;2022-07-29T07:17:25;133.70;;;99.60;;
18999;SDS011;9633;50.980;13.850;2022-07-29T07:19:00;137.47;;;103.07;;
18999;SDS011;9633;50.980;13.850;2022-07-29T07:20:34;133.13;;;102.50;;
18999;SDS011;9633;50.980;13.850;2022-07-29T07:22:08;151.77;;;113.23;;
18999;SDS011;9633;50.980;13.850;2022-07-29T07:23:41;152.50;;;113.00;;
18999;SDS011;9633;50.980;13.850;2022-07-29T07:25:14;149.23;;;112.57;;
18999;SDS011;9633;50.980;13.850;2022-07-29T07:26:48;149.60;;;112.80;;
18999;SDS011;9633;50.980;13.850;2022-07-29T07:28:27;149.47;;;112.53;;
18999;SDS011;9633;50.980;13.850;2022-07-29T07:30:00;145.47;;;111.33;;
18999;SDS011;9633;50.980;13.850;2022-07-29T07:31:33;146.03;;;110.60;;
18999;SDS011;9633;50.980;13.850;2022-07-29T07:33:07;144.70;;;104.77;;
18999;SDS011;9633;50.980;13.850;2022-07-29T07:34:41;151.57;;;106.80;;
18999;SDS011;9633;50.980;13.850;2022-07-29T07:36:15;144.90;;;103.33;;
18999;SDS011;9633;50.980;13.850;2022-07-29T07:37:48;125.07;;;96.33;;
18999;SDS011;9633;50.980;13.850;2022-07-29T07:39:21;117.70;;;91.60;;
18999;SDS011;9633;50.980;13.850;2022-07-29T07:40:55;123.27;;;91.57;;
18999;SDS011;9633;50.980;13.850;2022-07-29T07:42:28;114.80;;;87.57;;
18999;SDS011;9633;50.980;13.850;2022-07-29T07:44:01;114.80;;;86.43;;
18999;SDS011;9633;50.980;13.850;2022-07-29T07:45:34;118.03;;;94.67;;
18999;SDS011;9633;50.980;13.850;2022-07-29T07:47:09;118.10;;;91.50;;
18999;SDS011;9633;50.980;13.850;2022-07-29T07:48:42;126.10;;;92.03;;
18999;SDS011;9633;50.980;13.850;2022-07-29T07:50:17;112.30;;;87.47;;
18999;SDS011;9633;50.980;13.850;2022-07-29T07:51:51;103.43;;;80.57;;
18999;SDS011;9633;50.980;13.850;2022-07-29T07:53:25;101.13;;;77.97;;
18999;SDS011;9633;50.980;13.850;2022-07-29T07:54:58;102.00;;;75.07;;
18999;SDS011;9633;50.980;13.850;2022-07-29T07:56:31;97.33;;;73.57;;
18999;SDS011;9633;50.980;13.850;2022-07-29T07:58:05;93.93;;;71.67;;
18999;SDS011;9633;50.980;13.850;2022-07-29T07:59:39;86.93;;;68.43;;
18999;SDS011;9633;50.980;13.850;2022-07-29T08:01:12;87.00;;;68.57;;
18999;SDS011;9633;50.980;13.850;2022-07-29T08:02:49;90.53;;;68.03;;
18999;SDS011;9633;50.980;13.850;2022-07-29T08:04:23;88.43;;;66.13;;
18999;SDS011;9633;50.980;13.850;2022-07-29T08:06:01;97.40;;;73.67;;
18999;SDS011;9633;50.980;13.850;2022-07-29T08:07:34;92.67;;;72.60;;
18999;SDS011;9633;50.980;13.850;2022-07-29T08:09:08;90.07;;;70.67;;
18999;SDS011;9633;50.980;13.850;2022-07-29T08:10:59;79.30;;;64.23;;
18999;SDS011;9633;50.980;13.850;2022-07-29T08:12:39;90.33;;;64.17;;
18999;SDS011;9633;50.980;13.850;2022-07-29T08:14:13;67.17;;;53.00;;
18999;SDS011;9633;50.980;13.850;2022-07-29T08:15:46;65.70;;;49.67;;
18999;SDS011;9633;50.980;13.850;2022-07-29T08:17:29;57.37;;;46.47;;
18999;SDS011;9633;50.980;13.850;2022-07-29T08:19:05;65.13;;;51.03;;
18999;SDS011;9633;50.980;13.850;2022-07-29T08:20:39;64.73;;;50.83;;
18999;SDS011;9633;50.980;13.850;2022-07-29T08:22:14;66.60;;;44.97;;
18999;SDS011;9633;50.980;13.850;2022-07-29T08:23:47;55.60;;;41.50;;
18999;SDS011;9633;50.980;13.850;2022-07-29T08:25:33;53.83;;;42.93;;
18999;SDS011;9633;50.980;13.850;2022-07-29T08:27:10;51.17;;;41.13;;
18999;SDS011;9633;50.980;13.850;2022-07-29T08:29:04;52.80;;;43.40;;
18999;SDS011;9633;50.980;13.850;2022-07-29T08:30:37;52.67;;;41.80;;
18999;SDS011;9633;50.980;13.850;2022-07-29T08:32:10;58.27;;;43.27;;
18999;SDS011;9633;50.980;13.850;2022-07-29T08:34:04;60.27;;;44.33;;
18999;SDS011;9633;50.980;13.850;2022-07-29T08:35:38;58.33;;;45.50;;
18999;SDS011;9633;50.980;13.850;2022-07-29T08:37:13;51.80;;;39.73;;
18999;SDS011;9633;50.980;13.850;2022-07-29T08:38:46;49.37;;;39.93;;
18999;SDS011;9633;50.980;13.850;2022-07-29T08:40:20;44.73;;;34.73;;
18999;SDS011;9633;50.980;13.850;2022-07-29T08:42:03;37.97;;;31.67;;
18999;SDS011;9633;50.980;13.850;2022-07-29T08:43:36;42.43;;;32.87;;
18999;SDS011;9633;50.980;13.850;2022-07-29T08:45:09;38.30;;;31.25;;
18999;SDS011;9633;50.980;13.850;2022-07-29T08:46:43;41.63;;;30.95;;
18999;SDS011;9633;50.980;13.850;2022-07-29T08:48:17;38.80;;;30.40;;
18999;SDS011;9633;50.980;13.850;2022-07-29T08:49:51;35.67;;;29.50;;
18999;SDS011;9633;50.980;13.850;2022-07-29T08:51:25;34.97;;;28.15;;
18999;SDS011;9633;50.980;13.850;2022-07-29T08:53:04;36.15;;;28.27;;
18999;SDS011;9633;50.980;13.850;2022-07-29T08:54:39;35.50;;;27.90;;
18999;SDS011;9633;50.980;13.850;2022-07-29T08:56:17;34.92;;;26.65;;
18999;SDS011;9633;50.980;13.850;2022-07-29T08:57:52;36.00;;;25.08;;
18999;SDS011;9633;50.980;13.850;2022-07-29T08:59:27;36.88;;;25.75;;
18999;SDS011;9633;50.980;13.850;2022-07-29T09:01:05;26.08;;;20.70;;
18999;SDS011;9633;50.980;13.850;2022-07-29T09:02:44;26.90;;;19.88;;
18999;SDS011;9633;50.980;13.850;2022-07-29T09:04:23;27.20;;;20.92;;
18999;SDS011;9633;50.980;13.850;2022-07-29T09:05:59;26.42;;;20.85;;
18999;SDS011;9633;50.980;13.850;2022-07-29T09:07:34;25.50;;;19.67;;
18999;SDS011;9633;50.980;13.850;2022-07-29T09:09:09;25.88;;;21.08;;
18999;SDS011;9633;50.980;13.850;2022-07-29T09:10:45;26.35;;;20.88;;
18999;SDS011;9633;50.980;13.850;2022-07-29T09:12:19;29.98;;;21.35;;
18999;SDS011;9633;50.980;13.850;2022-07-29T09:14:00;27.02;;;21.60;;
18999;SDS011;9633;50.980;13.850;2022-07-29T09:15:33;26.70;;;21.83;;
18999;SDS011;9633;50.980;13.850;2022-07-29T09:17:07;26.25;;;21.08;;
18999;SDS011;9633;50.980;13.850;2022-07-29T09:18:41;29.40;;;22.25;;
18999;SDS011;9633;50.980;13.850;2022-07-29T09:20:16;27.08;;;21.45;;
18999;SDS011;9633;50.980;13.850;2022-07-29T09:21:51;31.08;;;22.15;;
18999;SDS011;9633;50.980;13.850;2022-07-29T09:23:30;33.65;;;22.60;;